createdAt,value
2023-03-26T00:00:23.500Z,22.90
2023-03-26T00:03:18.003Z,20.00
2023-03-26T00:06:08.635Z,19.00
2023-03-26T00:08:47.011Z,17.50
2023-03-26T00:11:31.100Z,19.50
2023-03-26T00:14:07.018Z,20.20
2023-03-26T00:16:43.545Z,20.70
2023-03-26T00:19:28.067Z,18.10
2023-03-26T00:22:00.693Z,18.20
2023-03-26T00:24:37.640Z,17.00
2023-03-26T00:27:12.396Z,17.20
2023-03-26T00:29:45.127Z,17.90
2023-03-26T00:32:21.059Z,18.00
2023-03-26T00:34:54.345Z,16.70
2023-03-26T00:37:30.438Z,15.40
2023-03-26T00:40:07.038Z,12.50
2023-03-26T00:42:40.254Z,13.50
2023-03-26T00:45:17.245Z,13.30
2023-03-26T00:47:51.855Z,12.90
2023-03-26T00:50:25.279Z,12.20
2023-03-26T00:53:08.868Z,10.90
2023-03-26T00:55:41.765Z,10.80
2023-03-26T00:58:18.109Z,10.90
2023-03-26T01:00:57.483Z,11.10
2023-03-26T01:03:36.450Z,9.40
2023-03-26T01:06:27.839Z,12.30
2023-03-26T01:09:06.445Z,10.70
2023-03-26T01:11:39.296Z,10.10
2023-03-26T01:14:19.114Z,11.40
2023-03-26T01:16:55.151Z,11.10
2023-03-26T01:19:38.154Z,9.90
2023-03-26T01:22:14.824Z,9.70
2023-03-26T01:24:53.421Z,8.10
2023-03-26T01:27:39.085Z,8.20
2023-03-26T01:30:24.343Z,9.50
2023-03-26T01:33:14.068Z,8.10
2023-03-26T01:36:00.459Z,8.10
2023-03-26T01:38:48.428Z,8.10
2023-03-26T01:41:31.761Z,8.90
2023-03-26T01:44:22.760Z,9.10
2023-03-26T01:47:01.194Z,9.00
2023-03-26T01:52:14.341Z,10.20
2023-03-26T01:54:47.346Z,10.40
2023-03-26T01:57:34.144Z,9.20
2023-03-26T02:00:26.453Z,11.40
2023-03-26T02:03:23.555Z,10.50
2023-03-26T02:06:05.448Z,10.60
2023-03-26T02:09:04.580Z,10.60
2023-03-26T02:11:50.189Z,11.70
2023-03-26T02:14:26.327Z,12.10
2023-03-26T02:17:03.011Z,11.80
2023-03-26T02:19:45.353Z,10.20
2023-03-26T02:22:18.241Z,9.70
2023-03-26T02:24:51.617Z,10.50
2023-03-26T02:27:25.930Z,9.10
2023-03-26T02:30:02.523Z,12.00
2023-03-26T02:32:36.969Z,10.20
2023-03-26T02:35:14.665Z,10.90
2023-03-26T02:37:51.245Z,9.10
2023-03-26T02:40:25.624Z,7.60
2023-03-26T02:43:00.924Z,8.10
2023-03-26T02:45:47.531Z,9.00
2023-03-26T02:48:38.964Z,8.40
2023-03-26T02:51:20.279Z,8.20
2023-03-26T02:54:08.090Z,8.00
2023-03-26T02:56:41.104Z,8.30
2023-03-26T02:59:24.488Z,8.60
2023-03-26T03:02:15.028Z,9.40
2023-03-26T03:04:48.465Z,6.90
2023-03-26T03:07:24.702Z,6.80
2023-03-26T03:10:03.480Z,7.60
2023-03-26T03:12:56.364Z,7.80
2023-03-26T03:15:31.768Z,5.80
2023-03-26T03:18:07.563Z,7.60
2023-03-26T03:20:40.673Z,8.00
2023-03-26T03:23:13.558Z,6.80
2023-03-26T03:25:52.994Z,6.00
2023-03-26T03:28:26.767Z,5.80
2023-03-26T03:31:01.898Z,5.90
2023-03-26T03:33:38.618Z,7.60
2023-03-26T03:36:20.964Z,5.90
2023-03-26T03:39:02.952Z,6.90
2023-03-26T03:41:36.093Z,6.20
2023-03-26T03:44:12.277Z,6.50
2023-03-26T03:46:45.352Z,5.90
2023-03-26T03:49:18.178Z,6.00
2023-03-26T03:51:52.561Z,6.10
2023-03-26T03:54:32.101Z,5.30
2023-03-26T03:57:33.593Z,6.10
2023-03-26T04:00:13.148Z,5.30
2023-03-26T04:02:48.614Z,6.10
2023-03-26T04:05:22.539Z,5.20
2023-03-26T04:08:00.122Z,5.70
2023-03-26T04:10:32.994Z,4.20
2023-03-26T04:13:26.154Z,5.20
2023-03-26T04:16:10.865Z,4.10
2023-03-26T04:18:45.268Z,4.90
2023-03-26T04:21:30.483Z,4.00
2023-03-26T04:24:03.442Z,3.80
2023-03-26T04:27:01.177Z,5.20
2023-03-26T04:29:45.761Z,5.10
2023-03-26T04:32:30.261Z,4.90
2023-03-26T04:35:07.540Z,4.60
2023-03-26T04:37:53.164Z,5.00
2023-03-26T04:40:34.905Z,3.40
2023-03-26T04:43:20.110Z,4.20
2023-03-26T04:46:12.433Z,4.40
2023-03-26T04:48:55.369Z,3.60
2023-03-26T04:51:38.788Z,3.40
2023-03-26T04:54:21.730Z,4.00
2023-03-26T04:57:04.345Z,3.90
2023-03-26T05:00:01.306Z,3.40
2023-03-26T05:02:56.439Z,4.20
2023-03-26T05:05:50.872Z,3.80
2023-03-26T05:08:33.663Z,3.50
2023-03-26T05:11:28.029Z,2.70
2023-03-26T05:14:21.597Z,3.40
2023-03-26T05:17:11.913Z,3.20
2023-03-26T05:20:05.321Z,3.80
2023-03-26T05:23:00.494Z,4.20
2023-03-26T05:25:52.313Z,2.70
2023-03-26T05:28:46.012Z,2.00
2023-03-26T05:31:41.494Z,3.50
2023-03-26T05:34:36.233Z,3.00
2023-03-26T05:37:31.191Z,4.30
2023-03-26T05:40:25.194Z,5.20
2023-03-26T05:43:11.794Z,3.80
2023-03-26T05:46:13.813Z,2.80
2023-03-26T05:49:07.082Z,4.30
2023-03-26T05:52:00.603Z,4.00
2023-03-26T05:54:57.229Z,2.90
2023-03-26T05:58:08.404Z,4.10
2023-03-26T06:01:05.896Z,4.00
2023-03-26T06:03:59.092Z,3.90
2023-03-26T06:06:45.230Z,3.80
2023-03-26T06:09:18.746Z,3.50
2023-03-26T06:12:12.845Z,3.60
2023-03-26T06:14:50.173Z,3.80
2023-03-26T06:17:31.847Z,2.40
2023-03-26T06:20:15.731Z,3.40
2023-03-26T06:23:09.237Z,3.50
2023-03-26T06:25:58.129Z,3.40
2023-03-26T06:29:04.771Z,3.50
2023-03-26T06:32:16.639Z,3.70
2023-03-26T06:34:56.465Z,3.50
2023-03-26T06:37:39.537Z,5.30
2023-03-26T06:40:32.485Z,3.50
2023-03-26T06:43:27.162Z,2.30
2023-03-26T06:46:21.495Z,2.80
2023-03-26T06:49:32.462Z,3.10
2023-03-26T06:52:28.726Z,4.20
2023-03-26T06:55:20.454Z,3.00
2023-03-26T06:58:16.856Z,4.30
2023-03-26T07:01:08.933Z,2.80
2023-03-26T07:04:01.170Z,3.40
2023-03-26T07:06:52.683Z,3.40
2023-03-26T07:09:45.011Z,3.60
2023-03-26T07:12:48.864Z,5.10
2023-03-26T07:15:41.091Z,2.90
2023-03-26T07:18:36.526Z,5.00
2023-03-26T07:24:18.351Z,3.60
2023-03-26T07:27:19.554Z,3.70
2023-03-26T07:30:22.849Z,4.30
2023-03-26T07:33:15.763Z,4.70
2023-03-26T07:36:25.667Z,5.40
2023-03-26T07:39:32.518Z,4.10
2023-03-26T07:42:58.294Z,3.30
2023-03-26T07:45:50.763Z,3.60
2023-03-26T07:48:48.023Z,3.60
2023-03-26T07:51:42.176Z,3.70
2023-03-26T07:54:31.049Z,4.10
2023-03-26T07:57:35.000Z,3.80
2023-03-26T08:00:32.144Z,3.00
2023-03-26T08:03:44.044Z,3.70
2023-03-26T08:06:39.680Z,4.20
2023-03-26T08:10:03.335Z,4.40
2023-03-26T08:12:59.304Z,4.00
2023-03-26T08:15:39.347Z,2.90
2023-03-26T08:18:29.023Z,4.10
2023-03-26T08:21:10.052Z,3.80
2023-03-26T08:23:57.807Z,4.60
2023-03-26T08:26:44.490Z,5.40
2023-03-26T08:29:28.125Z,3.70
2023-03-26T08:32:01.804Z,3.30
2023-03-26T08:34:37.325Z,5.10
2023-03-26T08:37:30.376Z,6.20
2023-03-26T08:40:03.369Z,6.00
2023-03-26T08:43:14.992Z,7.80
2023-03-26T08:46:10.527Z,14.10
2023-03-26T08:49:31.982Z,12.00
2023-03-26T08:52:38.436Z,5.80
2023-03-26T08:55:36.776Z,5.70
2023-03-26T08:59:04.966Z,4.80
2023-03-26T09:02:32.465Z,5.60
2023-03-26T09:05:54.904Z,6.90
2023-03-26T09:09:21.284Z,7.30
2023-03-26T09:12:21.165Z,6.80
2023-03-26T09:15:17.506Z,11.50
2023-03-26T09:18:21.396Z,9.50
2023-03-26T09:21:30.152Z,6.10
2023-03-26T09:24:44.025Z,4.90
2023-03-26T09:27:38.332Z,5.10
2023-03-26T09:30:53.505Z,5.60
2023-03-26T09:34:11.606Z,5.50
2023-03-26T09:37:27.899Z,3.60
2023-03-26T09:40:27.043Z,5.10
2023-03-26T09:43:44.101Z,5.30
2023-03-26T09:46:48.842Z,6.80
2023-03-26T09:49:46.401Z,7.60
2023-03-26T09:52:52.342Z,6.90
2023-03-26T09:55:56.782Z,7.20
2023-03-26T09:59:12.845Z,5.30
2023-03-26T10:02:45.437Z,6.10
2023-03-26T10:05:59.150Z,5.80
2023-03-26T10:09:12.461Z,5.20
2023-03-26T10:12:10.023Z,4.90
2023-03-26T10:17:39.074Z,5.90
2023-03-26T10:20:45.400Z,4.10
2023-03-26T10:23:53.021Z,4.40
2023-03-26T10:27:09.330Z,4.20
2023-03-26T10:30:29.578Z,5.20
2023-03-26T10:33:32.087Z,5.80
2023-03-26T10:36:32.713Z,6.70
2023-03-26T10:39:44.912Z,4.50
2023-03-26T10:42:43.377Z,4.20
2023-03-26T10:45:33.313Z,4.20
2023-03-26T10:48:36.516Z,4.10
2023-03-26T10:51:51.310Z,5.20
2023-03-26T10:54:39.784Z,3.60
2023-03-26T10:57:27.542Z,5.30
2023-03-26T11:00:26.527Z,3.30
2023-03-26T11:03:22.246Z,4.50
2023-03-26T11:06:06.416Z,4.90
2023-03-26T11:08:48.307Z,3.20
2023-03-26T11:11:27.415Z,5.00
2023-03-26T11:14:13.681Z,5.60
2023-03-26T11:17:02.436Z,5.40
2023-03-26T11:19:44.021Z,5.00
2023-03-26T11:22:36.171Z,4.10
2023-03-26T11:25:31.662Z,4.00
2023-03-26T11:28:18.087Z,3.30
2023-03-26T11:31:00.596Z,5.00
2023-03-26T11:33:45.486Z,4.20
2023-03-26T11:36:32.767Z,5.10
2023-03-26T11:39:10.665Z,5.80
2023-03-26T11:42:00.509Z,6.10
2023-03-26T11:44:48.466Z,5.20
2023-03-26T11:47:26.816Z,5.90
2023-03-26T11:50:04.928Z,5.70
2023-03-26T11:52:37.754Z,6.80
2023-03-26T11:55:15.931Z,19.20
2023-03-26T11:57:55.462Z,12.00
2023-03-26T12:00:48.872Z,8.20
2023-03-26T12:03:38.463Z,3.70
2023-03-26T12:06:27.576Z,4.80
2023-03-26T12:09:03.947Z,8.30
2023-03-26T12:11:41.805Z,3.20
2023-03-26T12:14:20.520Z,6.70
2023-03-26T12:17:05.131Z,4.30
2023-03-26T12:19:58.150Z,3.50
2023-03-26T12:22:43.610Z,5.90
2023-03-26T12:25:24.659Z,7.30
2023-03-26T12:28:22.691Z,6.00
2023-03-26T12:31:18.373Z,4.00
2023-03-26T12:34:15.748Z,5.20
2023-03-26T12:37:03.756Z,5.60
2023-03-26T12:40:06.717Z,2.30
2023-03-26T12:44:44.921Z,3.00
2023-03-26T12:45:44.538Z,3.30
2023-03-26T12:48:21.329Z,2.80
2023-03-26T12:51:06.717Z,1.90
2023-03-26T12:54:10.029Z,3.30
2023-03-26T12:57:12.101Z,2.40
2023-03-26T13:00:27.000Z,2.90
2023-03-26T13:03:27.545Z,2.70
2023-03-26T13:06:16.698Z,2.70
2023-03-26T13:09:19.747Z,2.00
2023-03-26T13:12:07.397Z,2.80
2023-03-26T13:15:09.763Z,3.70
2023-03-26T13:18:20.523Z,2.90
2023-03-26T13:21:06.238Z,2.60
2023-03-26T13:24:00.858Z,2.10
2023-03-26T13:26:49.260Z,2.00
2023-03-26T13:29:33.803Z,3.00
2023-03-26T13:32:17.304Z,2.90
2023-03-26T13:35:08.941Z,2.40
2023-03-26T13:38:12.987Z,3.70
2023-03-26T13:40:58.829Z,3.60
2023-03-26T13:43:50.910Z,4.60
2023-03-26T13:46:32.226Z,2.60
2023-03-26T13:49:16.625Z,2.80
2023-03-26T13:51:57.379Z,3.10
2023-03-26T13:54:55.970Z,3.50
2023-03-26T13:57:39.492Z,4.40
2023-03-26T14:00:26.727Z,4.00
2023-03-26T14:03:04.116Z,3.40
2023-03-26T14:05:49.815Z,2.70
2023-03-26T14:08:37.521Z,2.80
2023-03-26T14:11:14.427Z,4.30
2023-03-26T14:14:04.083Z,3.30
2023-03-26T14:16:52.790Z,3.90
2023-03-26T14:20:13.400Z,3.10
2023-03-26T14:23:18.433Z,4.20
2023-03-26T14:29:05.758Z,2.90
2023-03-26T14:31:44.563Z,2.90
2023-03-26T14:34:43.132Z,8.60
2023-03-26T14:37:42.029Z,6.30
2023-03-26T14:40:52.543Z,6.50
2023-03-26T14:43:54.038Z,7.50
2023-03-26T14:46:43.272Z,8.40
2023-03-26T14:49:53.824Z,11.80
2023-03-26T14:52:38.430Z,14.10
2023-03-26T14:55:18.605Z,6.70
2023-03-26T14:58:36.202Z,5.30
2023-03-26T15:01:26.856Z,3.40
2023-03-26T15:04:36.607Z,3.70
2023-03-26T15:10:59.026Z,11.30
2023-03-26T15:13:57.141Z,29.10
2023-03-26T15:17:13.451Z,8.60
2023-03-26T15:20:52.057Z,10.40
2023-03-26T15:24:19.643Z,10.20
2023-03-26T15:27:52.078Z,8.80
2023-03-26T15:31:18.775Z,12.10
2023-03-26T15:34:27.640Z,6.90
2023-03-26T15:37:31.984Z,11.00
2023-03-26T15:40:32.220Z,10.50
2023-03-26T15:43:33.558Z,12.90
2023-03-26T15:46:33.950Z,15.00
2023-03-26T15:49:16.583Z,14.60
2023-03-26T15:52:22.386Z,12.10
2023-03-26T15:55:04.371Z,11.10
2023-03-26T15:58:02.183Z,10.90
2023-03-26T16:00:40.638Z,9.50
2023-03-26T16:03:43.242Z,15.60
2023-03-26T16:06:48.911Z,10.60
2023-03-26T16:09:48.334Z,10.00
2023-03-26T16:12:46.310Z,11.50
2023-03-26T16:15:39.915Z,9.00
2023-03-26T16:18:29.910Z,9.50
2023-03-26T16:21:47.704Z,17.40
2023-03-26T16:24:34.781Z,14.80
2023-03-26T16:27:32.262Z,15.60
2023-03-26T16:30:34.105Z,23.00
2023-03-26T16:33:17.967Z,16.00
2023-03-26T16:36:06.650Z,14.60
2023-03-26T16:39:18.864Z,17.20
2023-03-26T16:42:05.928Z,36.00
2023-03-26T16:44:50.167Z,29.10
2023-03-26T16:47:34.034Z,21.20
2023-03-26T16:50:18.907Z,23.70
2023-03-26T16:53:01.015Z,31.60
2023-03-26T16:55:43.919Z,28.70
2023-03-26T16:58:31.110Z,29.90
2023-03-26T17:01:21.406Z,26.90
2023-03-26T17:04:04.346Z,27.90
2023-03-26T17:07:02.213Z,31.00
2023-03-26T17:12:34.187Z,33.90
2023-03-26T17:15:32.236Z,27.60
2023-03-26T17:18:25.949Z,28.60
2023-03-26T17:21:07.712Z,28.50
2023-03-26T17:24:01.492Z,28.60
2023-03-26T17:26:45.545Z,31.00
2023-03-26T17:29:31.330Z,30.30
2023-03-26T17:35:00.780Z,31.20
2023-03-26T17:37:49.994Z,31.10
2023-03-26T17:40:55.187Z,27.60
2023-03-26T17:43:46.934Z,29.40
2023-03-26T17:46:38.618Z,29.20
2023-03-26T17:49:20.470Z,26.80
2023-03-26T17:52:26.869Z,21.60
2023-03-26T17:55:04.551Z,21.10
2023-03-26T17:57:52.376Z,20.70
2023-03-26T18:00:32.670Z,19.90
2023-03-26T18:03:21.308Z,22.80
2023-03-26T18:06:00.923Z,17.50
2023-03-26T18:09:08.578Z,22.10
2023-03-26T18:12:12.186Z,25.20
2023-03-26T18:15:23.450Z,26.00
2023-03-26T18:18:04.098Z,21.60
2023-03-26T18:20:39.282Z,28.40
2023-03-26T18:23:31.189Z,30.90
2023-03-26T18:26:17.652Z,25.70
2023-03-26T18:29:24.186Z,26.60
2023-03-26T18:32:02.730Z,28.50
2023-03-26T18:35:01.047Z,28.10
2023-03-26T18:37:47.658Z,30.00
2023-03-26T18:40:22.245Z,32.40
2023-03-26T18:43:02.860Z,37.40
2023-03-26T18:45:38.812Z,36.50
2023-03-26T18:48:20.489Z,38.00
2023-03-26T18:51:16.074Z,40.60
2023-03-26T18:54:01.873Z,44.30
2023-03-26T18:56:40.344Z,52.00
2023-03-26T18:59:28.278Z,46.60
2023-03-26T19:02:07.465Z,35.20
2023-03-26T19:04:46.168Z,36.60
2023-03-26T19:07:42.910Z,53.80
2023-03-26T19:10:22.235Z,45.80
2023-03-26T19:13:03.262Z,37.50
2023-03-26T19:15:57.870Z,46.10
2023-03-26T19:18:43.999Z,37.70
2023-03-26T19:21:23.346Z,34.30
2023-03-26T19:24:08.061Z,38.30
2023-03-26T19:27:01.331Z,41.70
2023-03-26T19:29:54.606Z,43.10
2023-03-26T19:33:13.046Z,42.40
2023-03-26T19:36:21.324Z,42.60
2023-03-26T19:39:24.269Z,41.10
2023-03-26T19:42:42.950Z,38.60
2023-03-26T19:45:37.784Z,39.20
2023-03-26T19:48:54.301Z,38.40
2023-03-26T19:51:52.362Z,35.90
2023-03-26T19:54:59.359Z,39.30
2023-03-26T19:57:34.875Z,38.70
2023-03-26T20:00:22.749Z,43.50
2023-03-26T20:03:16.749Z,38.00
2023-03-26T20:06:02.326Z,35.50
2023-03-26T20:08:56.203Z,37.50
2023-03-26T20:11:50.410Z,35.90
2023-03-26T20:14:45.473Z,45.00
2023-03-26T20:17:42.998Z,41.10
2023-03-26T20:20:27.550Z,44.30
2023-03-26T20:23:20.506Z,45.60
2023-03-26T20:26:16.518Z,43.60
2023-03-26T20:29:02.359Z,41.30
2023-03-26T20:31:56.522Z,43.60
2023-03-26T20:34:49.915Z,44.60
2023-03-26T20:37:43.189Z,45.90
2023-03-26T20:40:36.166Z,47.00
2023-03-26T20:43:30.350Z,43.60
2023-03-26T20:46:31.628Z,49.90
2023-03-26T20:49:25.284Z,41.90
2023-03-26T20:52:18.821Z,42.70
2023-03-26T20:55:06.319Z,46.80
2023-03-26T20:57:59.673Z,44.70
2023-03-26T21:00:53.151Z,46.40
2023-03-26T21:03:46.270Z,47.60
2023-03-26T21:06:28.992Z,49.90
2023-03-26T21:09:21.956Z,51.60
2023-03-26T21:12:25.968Z,47.30
2023-03-26T21:15:22.757Z,47.50
2023-03-26T21:21:28.111Z,46.40
2023-03-26T21:24:33.507Z,39.60
2023-03-26T21:27:30.990Z,41.20
2023-03-26T21:30:26.055Z,39.00
2023-03-26T21:33:13.913Z,43.60
2023-03-26T21:36:07.869Z,42.20
2023-03-26T21:39:01.860Z,42.70
2023-03-26T21:42:04.845Z,44.70
2023-03-26T21:45:02.284Z,52.90
2023-03-26T21:47:46.689Z,45.30
2023-03-26T21:50:24.947Z,47.90
2023-03-26T21:53:18.977Z,45.20
2023-03-26T21:56:24.137Z,46.20
2023-03-26T21:59:27.790Z,42.50
2023-03-26T22:02:29.643Z,48.30
2023-03-26T22:05:26.081Z,49.70
2023-03-26T22:08:18.034Z,48.40
2023-03-26T22:11:12.749Z,47.40
2023-03-26T22:14:06.298Z,48.60
2023-03-26T22:16:49.141Z,65.70
2023-03-26T22:19:21.688Z,58.90
2023-03-26T22:22:00.283Z,54.70
2023-03-26T22:24:53.661Z,43.90
2023-03-26T22:27:46.810Z,44.40
2023-03-26T22:30:40.097Z,44.30
2023-03-26T22:33:18.053Z,45.00
2023-03-26T22:36:23.365Z,45.20
2023-03-26T22:39:17.293Z,43.00
2023-03-26T22:42:10.213Z,45.40
2023-03-26T22:45:05.388Z,47.80
2023-03-26T22:48:03.597Z,53.20
2023-03-26T22:50:47.871Z,53.30
2023-03-26T22:53:40.793Z,51.80
2023-03-26T22:56:33.544Z,59.60
2023-03-26T22:59:06.198Z,66.70
2023-03-26T23:01:59.267Z,59.00
2023-03-26T23:04:50.716Z,58.70
2023-03-26T23:07:28.686Z,50.80
2023-03-26T23:10:22.994Z,56.00
2023-03-26T23:13:15.859Z,49.10
2023-03-26T23:16:11.388Z,52.80
2023-03-26T23:19:04.475Z,49.30
2023-03-26T23:21:58.500Z,48.80
2023-03-26T23:24:37.901Z,51.80
2023-03-26T23:27:18.050Z,52.10
2023-03-26T23:30:17.965Z,49.00
2023-03-26T23:33:13.556Z,49.70
2023-03-26T23:35:47.534Z,51.50
2023-03-26T23:38:43.481Z,50.30
2023-03-26T23:41:37.111Z,53.30
2023-03-26T23:44:30.440Z,48.80
2023-03-26T23:47:03.379Z,50.60
2023-03-26T23:49:45.515Z,47.70
2023-03-26T23:52:38.789Z,48.30
2023-03-26T23:55:24.286Z,48.70
2023-03-26T23:58:07.174Z,45.40
